Latest Weather Observations for Omeo

IDV60801

Issued at 9:31 am EST Saturday 30 April 2016 (issued every 30 minutes, with the page automatically refreshed every 10 minutes)

About weather observations | Map of weather stations | Latest weather observations for VIC | Other Formats
Station Details ID: 083090 Name: OMEO Lat: -37.10 Lon: 147.60 Height: 689.8 m
Data from the previous 72 hours. | See also: Recent months at Omeo
Date/Time
EST
Temp
°C
App
Temp
°C
Dew
Point
Rel
Hum
%
Delta-T
°C
Wind Press
QNH
hPa
Press
MSL
hPa
Rain
since 9 am
mm
Dir
 
Spd
km/h
Gust
km/h
Spd
kts
Gust
kts
30/09:30am 17.5 15.5 14.0 80 2.1 N 17 28 9 15 1018.5 1017.7 0.0
30/09:00am 15.9 14.3 13.9 88 1.2 N 15 20 8 11 1018.7 1018.0 0.0
30/08:30am 13.8 12.8 13.3 97 0.3 N 11 15 6 8 1018.7 1018.0 0.0
30/08:00am 13.7 12.7 13.4 98 0.2 N 11 15 6 8 1018.6 1017.8 0.0
30/07:30am 13.1 11.9 12.9 99 0.1 N 11 15 6 8 1018.4 1017.6 0.0
30/07:00am 13.1 11.5 12.9 99 0.1 N 13 17 7 9 1017.8 1017.1 0.0
30/06:30am 12.9 12.0 12.7 99 0.1 N 9 11 5 6 1017.6 1016.9 0.0
30/06:00am 13.4 12.2 12.9 97 0.3 NNW 11 15 6 8 1017.5 1016.8 0.0
30/05:30am 13.6 12.9 13.1 97 0.3 N 9 17 5 9 1017.4 1016.7 0.0
30/05:00am 13.6 12.9 13.1 97 0.3 N 9 11 5 6 1017.4 1016.7 0.0
30/04:30am 13.5 12.4 13.0 97 0.3 N 11 13 6 7 1017.2 1016.4 0.0
30/04:00am 13.1 11.5 12.8 98 0.2 NNW 13 17 7 9 1016.9 1016.1 0.0
30/03:30am 13.1 11.4 12.6 97 0.3 NNW 13 17 7 9 1016.8 1016.0 0.0
30/03:00am 13.5 11.9 12.9 96 0.3 N 13 17 7 9 1016.9 1016.1 0.0
30/02:30am 13.6 12.8 13.0 96 0.3 N 9 15 5 8 1017.1 1016.3 0.0
30/02:00am 13.8 12.0 13.2 96 0.3 N 15 19 8 10 1017.4 1016.7 0.0
30/01:30am 13.8 11.9 13.0 95 0.5 NNW 15 24 8 13 1017.3 1016.5 0.0
30/01:00am 13.7 11.7 12.8 94 0.5 NNW 15 20 8 11 1017.0 1016.2 0.0
30/12:30am 13.6 12.1 13.0 96 0.3 NNW 13 17 7 9 1017.3 1016.5 0.0
30/12:00am 13.6 12.0 12.7 94 0.5 NNW 13 19 7 10 1017.4 1016.7 0.0
 
Date/Time
EST
Temp
°C
App
Temp
°C
Dew
Point
Rel
Hum
%
Delta-T
°C
Wind Press
QNH
hPa
Press
MSL
hPa
Rain
since 9 am
mm
Dir
 
Spd
km/h
Gust
km/h
Spd
kts
Gust
kts
29/11:30pm 13.3 12.0 12.5 95 0.4 N 11 15 6 8 1017.2 1016.4 0.0
29/11:00pm 13.5 12.2 12.4 93 0.6 NNW 11 20 6 11 1017.5 1016.8 0.0
29/10:30pm 13.8 12.0 12.2 90 0.9 N 13 20 7 11 1017.8 1017.1 0.0
29/10:00pm 14.4 12.7 12.3 87 1.2 NNW 13 20 7 11 1017.8 1017.1 0.0
29/09:30pm 14.7 12.6 12.4 86 1.3 N 15 20 8 11 1017.8 1017.1 0.0
29/09:00pm 14.8 11.9 12.3 85 1.4 N 19 26 10 14 1017.4 1016.7 0.0
29/08:30pm 14.6 12.9 12.5 87 1.2 N 13 20 7 11 1017.2 1016.4 0.0
29/08:00pm 14.5 12.4 12.4 87 1.2 N 15 22 8 12 1017.0 1016.2 0.0
29/07:30pm 14.5 12.0 12.2 86 1.3 N 17 26 9 14 1016.8 1016.0 0.0
29/07:00pm 14.4 11.3 12.3 87 1.2 N 20 26 11 14 1016.8 1016.0 0.0
29/06:30pm 14.5 11.4 12.2 86 1.3 N 20 28 11 15 1016.9 1016.1 0.0
29/06:00pm 14.7 12.4 11.8 83 1.6 N 15 24 8 13 1016.7 1015.9 0.0
29/05:30pm 14.7 11.7 12.0 84 1.5 NNW 19 28 10 15 1016.6 1015.8 0.0
29/05:00pm 14.9 11.9 12.6 86 1.3 N 20 30 11 16 1016.6 1015.8 0.0
29/04:30pm 16.1 13.0 12.1 77 2.3 NNW 20 33 11 18 1016.8 1016.0 0.0
29/04:00pm 16.7 13.0 11.6 72 2.9 N 22 33 12 18 1016.8 1016.0 0.0
29/03:30pm 18.1 13.7 10.5 61 4.2 N 24 37 13 20 1016.8 1016.0 0.0
29/03:00pm 18.6 15.2 10.7 60 4.4 NW 19 30 10 16 1016.8 1016.0 0.0
29/02:30pm 18.6 14.2 10.4 59 4.6 NNW 24 44 13 24 1016.8 1016.0 0.0
29/02:24pm 18.8 13.6 10.4 58 4.7 NNW 28 46 15 25 1016.8 1016.0 0.0
29/02:00pm 18.8 14.0 10.4 58 4.7 NNW 26 46 14 25 1016.3 1015.6 0.0
29/01:39pm 18.6 13.6 10.9 61 4.3 NNW 28 46 15 25 1016.4 1015.7 0.0
29/01:30pm 19.5 15.5 10.5 56 5.0 N 22 33 12 18 1016.3 1015.6 0.0
29/01:00pm 19.2 15.6 10.7 58 4.8 NNE 20 32 11 17 1016.6 1015.8 0.0
29/12:30pm 18.8 15.4 10.6 59 4.6 N 19 24 10 13 1017.6 1016.9 0.0
29/12:00pm 18.3 14.3 10.4 60 4.4 N 22 33 12 18 1018.4 1017.6 0.0
29/11:30am 17.5 13.1 10.4 63 3.9 N 24 37 13 20 1018.9 1018.2 0.0
29/11:00am 17.0 13.0 10.4 65 3.6 N 22 33 12 18 1019.4 1018.7 0.0
29/10:30am 16.3 13.3 10.6 69 3.1 N 17 22 9 12 1020.0 1019.3 0.0
29/10:00am 15.7 13.0 10.2 70 3.0 N 15 19 8 10 1020.0 1019.3 0.0
29/09:30am 15.2 12.8 10.0 71 2.8 NNW 13 17 7 9 1020.4 1019.7 0.0
29/09:00am 14.6 12.8 9.6 72 2.7 NW 9 13 5 7 1020.7 1020.0 0.0
29/08:30am 14.9 12.7 9.3 69 3.0 N 11 22 6 12 1021.0 1020.3 0.0
29/08:00am 14.5 12.7 9.3 71 2.8 NNE 9 15 5 8 1020.9 1020.2 0.0
29/07:30am 12.9 10.6 9.0 77 2.0 N 11 17 6 9 1020.7 1020.0 0.0
29/07:00am 12.4 11.0 8.9 79 1.8 NNW 6 9 3 5 1020.7 1020.0 0.0
29/06:30am 12.4 10.4 8.7 78 1.9 NNW 9 15 5 8 1020.6 1019.9 0.0
29/06:00am 12.3 9.6 8.8 79 1.8 NNW 13 17 7 9 1020.7 1020.0 0.0
29/05:30am 12.3 9.6 9.0 80 1.7 N 13 17 7 9 1020.7 1020.0 0.0
29/05:00am 13.1 10.4 8.8 75 2.2 NNW 13 19 7 10 1020.8 1020.1 0.0
29/04:30am 13.1 10.4 9.0 76 2.1 NNW 13 19 7 10 1020.7 1020.0 0.0
29/04:00am 12.7 10.5 9.2 79 1.8 NNW 11 15 6 8 1020.7 1020.0 0.0
29/03:30am 12.6 10.0 9.2 80 1.8 NNW 13 19 7 10 1020.6 1019.9 0.0
29/03:00am 12.9 10.3 9.4 79 1.8 NNW 13 19 7 10 1020.6 1019.9 0.0
29/02:30am 13.6 11.0 9.3 75 2.3 N 13 20 7 11 1021.0 1020.3 0.0
29/02:00am 13.2 10.3 9.5 78 2.0 N 15 22 8 12 1021.2 1020.5 0.0
29/01:30am 13.9 12.6 9.3 74 2.4 N 6 9 3 5 1021.4 1020.7 0.0
29/01:00am 14.2 14.1 9.4 73 2.5 CALM 0 9 0 5 1021.8 1021.1 0.0
29/12:30am 13.6 11.5 9.6 77 2.1 N 11 17 6 9 1021.8 1021.1 0.0
29/12:00am 13.8 12.4 9.6 76 2.2 N 7 11 4 6 1022.1 1021.4 0.0
 
Date/Time
EST
Temp
°C
App
Temp
°C
Dew
Point
Rel
Hum
%
Delta-T
°C
Wind Press
QNH
hPa
Press
MSL
hPa
Rain
since 9 am
mm
Dir
 
Spd
km/h
Gust
km/h
Spd
kts
Gust
kts
28/11:30pm 13.5 11.4 9.6 77 2.1 N 11 15 6 8 1022.3 1021.6 0.0
28/11:00pm 13.6 11.5 9.6 77 2.1 N 11 13 6 7 1022.4 1021.8 0.0
28/10:30pm 13.5 11.4 9.7 78 2.0 NNW 11 17 6 9 1022.6 1022.0 0.0
28/10:00pm 13.1 11.7 9.5 79 1.9 NNW 7 11 4 6 1022.8 1022.1 0.0
28/09:30pm 13.4 12.0 9.6 78 2.0 NW 7 9 4 5 1022.8 1022.1 0.0
28/09:00pm 13.6 12.4 9.5 76 2.2 NW 6 9 3 5 1022.4 1021.8 0.0
28/08:30pm 14.5 13.3 9.5 72 2.7 NW 6 9 3 5 1022.2 1021.5 0.0
28/08:00pm 14.4 13.9 9.4 72 2.6 N 2 7 1 4 1022.3 1021.6 0.0
28/07:30pm 14.7 12.9 9.5 71 2.8 NW 9 11 5 6 1022.2 1021.5 0.0
28/07:00pm 14.9 14.4 9.3 69 3.0 N 2 6 1 3 1022.1 1021.4 0.0
28/06:30pm 15.5 14.6 9.2 66 3.4 NW 4 7 2 4 1022.1 1021.4 0.0
28/06:00pm 16.1 14.8 9.3 64 3.6 N 6 7 3 4 1021.9 1021.2 0.0
28/05:30pm 16.9 15.1 9.3 61 4.1 N 9 13 5 7 1021.7 1021.0 0.0
28/05:00pm 17.3 15.9 9.5 60 4.2 N 7 13 4 7 1021.7 1021.0 0.0
28/04:30pm 17.7 15.6 9.6 59 4.4 N 11 15 6 8 1021.7 1021.0 0.0
28/04:00pm 17.9 16.1 9.5 58 4.6 N 9 13 5 7 1021.6 1020.9 0.0
28/03:30pm 18.2 15.2 9.3 56 4.8 N 15 22 8 12 1021.8 1021.1 0.0
28/03:00pm 18.2 15.2 9.3 56 4.8 N 15 19 8 10 1021.6 1020.9 0.0
28/02:30pm 18.1 15.1 9.2 56 4.8 N 15 22 8 12 1021.6 1020.9 0.0
28/02:00pm 18.1 15.0 8.9 55 4.9 N 15 20 8 11 1021.7 1021.0 0.0
28/01:30pm 18.6 15.5 8.8 53 5.3 N 15 22 8 12 1021.9 1021.2 0.0
28/01:00pm 18.3 14.4 8.8 54 5.1 N 19 28 10 15 1022.2 1021.5 0.0
28/12:30pm 18.3 13.4 8.6 53 5.2 N 24 33 13 18 1022.3 1021.6 0.0
28/12:00pm 18.4 14.6 8.9 54 5.1 N 19 26 10 14 1022.8 1022.1 0.0
28/11:30am 18.2 14.3 8.7 54 5.1 N 19 26 10 14 1023.2 1022.5 0.0
28/11:00am 18.0 13.5 8.6 54 5.0 N 22 30 12 16 1023.4 1022.7 0.0
28/10:30am 18.0 14.1 8.8 55 4.9 N 19 28 10 15 1023.5 1022.8 0.0
28/10:00am 17.3 13.8 8.7 57 4.6 N 17 24 9 13 1023.4 1022.7 0.0
28/09:30am 17.0 13.0 8.4 57 4.6 NNW 19 30 10 16 1023.3 1022.6 0.0
28/09:00am 16.3 13.1 8.5 60 4.1 N 15 20 8 11 1023.2 1022.5 0.0
28/08:30am 16.2 12.6 8.4 60 4.1 NNW 17 24 9 13 1023.0 1022.3 0.0
28/08:00am 15.4 11.8 8.2 62 3.7 NNW 17 22 9 12 1022.5 1021.9 0.0
28/07:30am 15.2 11.6 8.2 63 3.7 NNW 17 22 9 12 1022.1 1021.4 0.0
28/07:00am 14.8 11.5 8.1 64 3.5 N 15 20 8 11 1021.9 1021.2 0.0
28/06:30am 14.7 11.8 8.0 64 3.5 NNW 13 20 7 11 1021.6 1020.9 0.0
28/06:00am 14.9 11.9 7.9 63 3.6 NNW 13 19 7 10 1021.7 1021.0 0.0
28/05:30am 15.1 12.1 7.9 62 3.7 NNW 13 20 7 11 1021.8 1021.1 0.0
28/05:00am 15.0 12.0 7.8 62 3.7 NNW 13 19 7 10 1021.6 1020.9 0.0
28/04:30am 15.2 11.8 7.7 61 3.9 NNW 15 22 8 12 1021.3 1020.6 0.0
28/04:00am 15.1 11.8 7.9 62 3.7 NNW 15 20 8 11 1021.3 1020.6 0.0
28/03:30am 15.0 11.6 7.8 62 3.7 NNW 15 22 8 12 1021.2 1020.5 0.0
28/03:00am 15.4 11.6 7.7 60 4.0 NNW 17 28 9 15 1021.3 1020.6 0.0
28/02:30am 15.5 11.8 7.8 60 4.0 N 17 28 9 15 1021.2 1020.5 0.0
28/02:00am 15.5 11.7 7.5 59 4.1 N 17 24 9 13 1021.4 1020.7 0.0
28/01:30am 15.6 11.4 7.6 59 4.1 N 19 30 10 16 1021.5 1020.8 0.0
28/01:00am 15.1 12.1 7.9 62 3.7 NNE 13 22 7 12 1021.4 1020.7 0.0
28/12:30am 14.9 11.9 7.9 63 3.6 NNE 13 20 7 11 1021.4 1020.7 0.0
28/12:00am 14.8 11.4 7.8 63 3.6 N 15 20 8 11 1021.6 1020.9 0.0
 
Date/Time
EST
Temp
°C
App
Temp
°C
Dew
Point
Rel
Hum
%
Delta-T
°C
Wind Press
QNH
hPa
Press
MSL
hPa
Rain
since 9 am
mm
Dir
 
Spd
km/h
Gust
km/h
Spd
kts
Gust
kts
27/11:30pm 14.1 11.9 7.9 66 3.2 NNE 9 15 5 8 1021.7 1021.0 0.0
27/11:00pm 14.2 12.0 7.9 66 3.2 NNE 9 15 5 8 1021.9 1021.2 0.0
27/10:30pm 13.8 10.8 7.8 67 3.1 N 13 20 7 11 1022.2 1021.5 0.0
27/10:00pm 13.5 10.5 7.9 69 2.9 N 13 17 7 9 1022.3 1021.6 0.0
27/09:30pm 13.4 10.8 7.6 68 3.0 NNW 11 15 6 8 1022.4 1021.8 0.0
27/09:00pm 14.1 11.6 8.1 67 3.1 N 11 15 6 8 1022.6 1022.0 0.0
27/08:30pm 13.9 11.3 7.9 67 3.1 NNW 11 17 6 9 1022.4 1021.8 0.0
27/08:00pm 14.6 10.9 8.1 65 3.4 N 17 22 9 12 1022.1 1021.4 0.0
27/07:30pm 14.2 10.9 7.9 66 3.2 N 15 20 8 11 1022.1 1021.4 0.0
27/07:00pm 14.4 11.8 7.7 64 3.4 N 11 15 6 8 1022.2 1021.5 0.0
27/06:30pm 15.1 14.2 7.6 61 3.9 NNE 2 9 1 5 1022.1 1021.4 0.0
27/06:00pm 16.2 14.3 7.7 57 4.4 N 7 11 4 6 1022.1 1021.4 0.0
27/05:30pm 16.6 13.6 7.5 55 4.7 N 13 20 7 11 1022.0 1021.3 0.0
27/05:00pm 17.4 14.0 7.5 52 5.1 NNW 15 20 8 11 1021.9 1021.2 0.0
27/04:30pm 18.4 14.0 7.5 49 5.7 N 20 30 11 16 1021.8 1021.1 0.0
27/04:00pm 18.5 14.3 7.3 48 5.8 N 19 30 10 16 1022.0 1021.3 0.0
27/03:30pm 20.3 15.2 7.7 44 6.7 N 24 33 13 18 1021.7 1021.0 0.0
27/03:00pm 20.8 15.6 7.4 42 7.1 N 24 33 13 18 1021.8 1021.1 0.0
27/02:30pm 21.4 16.3 7.6 41 7.4 N 24 37 13 20 1021.8 1021.1 0.0
27/02:00pm 20.6 15.2 7.9 44 6.8 N 26 41 14 22 1021.9 1021.2 0.0
27/01:30pm 20.5 15.4 7.8 44 6.8 NNE 24 37 13 20 1022.1 1021.4 0.0
27/01:00pm 20.8 15.4 8.1 44 6.8 N 26 35 14 19 1022.4 1021.8 0.0
27/12:30pm 20.6 14.7 7.6 43 6.9 N 28 39 15 21 1022.9 1022.2 0.0
27/12:00pm 20.7 15.3 8.0 44 6.8 N 26 43 14 23 1023.6 1022.9 0.0
27/11:30am 19.9 14.4 7.6 45 6.5 N 26 41 14 22 1024.0 1023.4 0.0
27/11:00am 19.4 14.0 8.1 48 6.0 NNE 26 37 14 20 1024.4 1023.7 0.0
27/10:30am 18.5 14.0 8.7 53 5.3 N 22 32 12 17 1025.0 1024.4 0.0
27/10:00am 16.8 12.5 7.7 55 4.7 N 20 30 11 16 1025.5 1024.9 0.0

Other Formats:

Comma delimited format used in spreadsheet applications
http://www.bom.gov.au/fwo/IDV60801/IDV60801.94908.axf

JavaScript Object Notation format (JSON) in row-major order
http://www.bom.gov.au/fwo/IDV60801/IDV60801.94908.json